6B9 weather

Skaneateles Aero Drome Airport
Skaneateles, New York, United States

Public forecast

Using degrees Fahrenheit for public forecast. Weather courtesy of forecast.io.

METAR (pilot weather report)

Closest report is Syracuse Hancock International Airport, 18.9 nm (34.9 km) NE. Retrieved 2019/07/16 02:54 UTC (19 minutes ago):

KSYR 160254Z 11005KT 10SM SCT140 SCT200 19/14 A3006 RMK AO2 SLP175 T01940139 51004

TAF (pilot weather forecast)

Forecast is more than 12 hours old.

Closest forecast is Syracuse Hancock International Airport, 18.9 nm (34.9 km) NE. Retrieved 2019/07/15 00:30 UTC (1 day ago):

TAF KSYR 152329Z 1600/1624 VRB03KT P6SM BKN250 FM161500 21005KT P6SM SCT050 BKN080 FM161800 25009KT P6SM BKN200